Latest Weather Observations for Kuitpo

IDS60801

Issued at 1:01 pm CST Wednesday 27 July 2016 (issued every 30 minutes, with the page automatically refreshed every 10 minutes)

About weather observations | Map of weather stations | Latest weather observations for SA | Other Formats
Station Details ID: 023887 Name: KUITPO FOREST RESERVE Lat: -35.17 Lon: 138.68 Height: 365.0 m
Data from the previous 72 hours. | See also: Recent months at Kuitpo
Date/Time
CST
Temp
°C
App
Temp
°C
Dew
Point
°C
Rel
Hum
%
Delta-T
°C
Wind Press
QNH
hPa
Press
MSL
hPa
Rain since
9am
mm
Dir  Spd
km/h
Gust
km/h
Spd
kts
Gust
kts
27/01:00pm 9.9 5.8 6.3 78 1.7 WSW 17 30 9 16 1022.2 1022.5 0.0
27/12:30pm 9.8 5.1 6.2 78 1.7 WSW 20 30 11 16 1022.3 1022.6 0.0
27/12:00pm 10.5 5.3 5.3 70 2.4 WSW 22 30 12 16 1022.3 1022.6 0.0
27/11:30am 10.2 6.0 5.8 74 2.1 WSW 17 26 9 14 1022.0 1022.3 0.0
27/11:00am 10.1 6.4 6.3 77 1.8 WSW 15 22 8 12 1021.7 1022.1 0.0
27/10:30am 9.1 5.7 5.8 80 1.5 WSW 13 20 7 11 1021.8 1022.2 0.0
27/10:00am 8.9 4.6 5.1 77 1.7 SW 17 26 9 14 1021.2 1021.6 0.0
27/09:30am 8.4 5.2 5.2 80 1.5 SW 11 19 6 10 1020.5 1020.8 0.0
27/09:00am 7.7 3.7 5.0 83 1.2 SW 15 22 8 12 1020.5 1020.8 13.2
27/08:30am 7.7 4.1 5.2 84 1.1 SW 13 26 7 14 1019.8 1020.1 13.2
27/08:00am 7.4 3.0 4.9 84 1.1 SW 17 26 9 14 1019.2 1019.5 13.2
27/07:30am 7.0 2.6 4.5 84 1.1 SW 17 22 9 12 1018.3 1018.6 13.2
27/07:00am 7.1 2.6 4.4 83 1.2 SW 17 26 9 14 1018.0 1018.3 13.2
27/06:30am 7.1 2.6 4.4 83 1.2 WSW 17 32 9 17 1017.5 1017.8 13.2
27/06:00am 7.1 2.7 4.6 84 1.1 SW 17 24 9 13 1016.9 1017.2 13.2
27/05:30am 6.7 2.2 6.0 95 0.3 SW 19 32 10 17 1016.2 1016.5 13.2
27/05:00am 6.8 2.4 6.5 98 0.1 SW 19 28 10 15 1015.5 1015.8 13.2
27/04:30am 7.2 2.3 6.9 98 0.1 SW 22 35 12 19 1014.8 1015.1 13.2
27/04:00am 7.7 2.5 7.4 98 0.1 SW 24 41 13 22 1014.3 1014.6 13.2
27/03:30am 8.0 3.3 7.7 98 0.1 WSW 22 35 12 19 1014.1 1014.4 13.0
27/03:00am 8.0 2.5 7.7 98 0.1 WSW 26 43 14 23 1013.6 1013.8 13.0
27/02:30am 8.1 2.3 7.8 98 0.1 WSW 28 43 15 23 1013.2 1013.5 13.0
27/02:00am 8.2 1.6 7.6 96 0.3 WSW 32 50 17 27 1012.7 1013.0 13.0
27/01:51am 8.5 2.6 7.4 93 0.5 WSW 28 50 15 27 1012.5 1012.8 12.8
27/01:30am 8.2 3.7 7.1 93 0.5 WSW 20 32 11 17 1012.2 1012.5 12.2
27/01:00am 8.1 3.2 6.9 92 0.6 WSW 22 30 12 16 1011.9 1012.2 12.2
27/12:30am 8.6 2.9 6.7 88 0.9 WSW 26 46 14 25 1011.5 1011.8 12.2
27/12:00am 8.6 3.3 6.9 89 0.8 WSW 24 41 13 22 1011.1 1011.3 12.2
 
Date/Time
CST
Temp
°C
App
Temp
°C
Dew
Point
°C
Rel
Hum
%
Delta-T
°C
Wind Press
QNH
hPa
Press
MSL
hPa
Rain since
9am
mm
Dir  Spd
km/h
Gust
km/h
Spd
kts
Gust
kts
26/11:41pm 8.6 2.6 7.1 90 0.7 WSW 28 54 15 29 1010.8 1011.0 12.2
26/11:30pm 8.7 3.1 7.2 90 0.7 WSW 26 43 14 23 1010.7 1010.9 12.2
26/11:00pm 8.4 3.1 6.7 89 0.8 WSW 24 39 13 21 1010.3 1010.6 12.2
26/10:30pm 8.8 3.3 7.4 91 0.7 WSW 26 44 14 24 1010.0 1010.3 12.2
26/10:00pm 8.8 2.8 7.1 89 0.8 WSW 28 46 15 25 1009.7 1010.0 12.2
26/09:43pm 8.9 2.6 7.2 89 0.8 WSW 30 50 16 27 1009.4 1009.7 12.2
26/09:30pm 8.8 2.8 6.9 88 0.9 W 28 44 15 24 1009.2 1009.5 12.2
26/09:00pm 8.5 1.8 5.4 81 1.4 WSW 30 54 16 29 1008.7 1008.9 12.2
26/08:47pm 8.6 1.1 6.2 85 1.1 WSW 35 69 19 37 1008.3 1008.5 12.2
26/08:32pm 8.6 2.5 6.4 86 1.0 WSW 28 48 15 26 1008.4 1008.6 12.2
26/08:30pm 8.5 2.7 6.3 86 1.0 WSW 26 43 14 23 1008.4 1008.6 12.2
26/08:00pm 8.5 1.6 6.3 86 1.0 WSW 32 52 17 28 1007.6 1007.8 12.2
26/07:30pm 8.4 1.8 7.8 96 0.3 WSW 32 56 17 30 1006.8 1007.0 12.2
26/07:00pm 8.6 2.1 8.3 98 0.1 W 32 50 17 27 1006.2 1006.4 12.2
26/06:30pm 8.3 2.6 8.2 99 0.0 W 28 46 15 25 1005.9 1006.1 11.6
26/06:00pm 9.0 1.7 8.9 99 0.1 W 37 69 20 37 1005.4 1005.6 10.8
26/05:55pm 9.0 0.6 8.9 99 0.0 W 43 78 23 42 1005.3 1005.5 10.8
26/05:53pm 8.9 0.3 8.8 99 0.0 W 44 78 24 42 1005.1 1005.3 10.8
26/05:30pm 8.9 -0.5 8.8 99 0.0 WNW 48 76 26 41 1004.3 1004.5 10.2
26/05:17pm 8.5 0.8 8.5 100 0.0 NW 39 78 21 42 1003.6 1003.8 10.0
26/05:00pm 8.3 1.8 8.2 99 0.0 NW 32 56 17 30 1004.1 1004.3 8.4
26/04:32pm 8.1 1.5 7.8 98 0.1 NW 32 50 17 27 1004.3 1004.5 5.2
26/04:30pm 8.2 1.4 7.9 98 0.1 NW 33 50 18 27 1004.7 1004.9 5.0
26/04:00pm 8.0 1.3 7.4 96 0.3 NW 32 67 17 36 1006.0 1006.2 4.4
26/03:30pm 7.9 1.6 7.6 98 0.1 NW 30 61 16 33 1006.5 1006.7 4.2
26/03:02pm 7.7 1.8 7.3 97 0.2 NW 28 52 15 28 1007.3 1007.6 3.6
26/03:00pm 7.7 2.1 7.3 97 0.2 NW 26 52 14 28 1007.3 1007.6 3.6
26/02:30pm 7.6 1.6 7.0 96 0.3 NNW 28 46 15 25 1007.8 1008.0 1.8
26/02:08pm 7.6 1.5 6.7 94 0.4 NW 28 50 15 27 1008.1 1008.3 1.2
26/02:00pm 7.6 1.9 6.5 93 0.5 NW 26 48 14 26 1008.2 1008.4 1.0
26/01:30pm 7.3 1.2 6.6 95 0.3 NW 28 48 15 26 1009.1 1009.3 1.0
26/01:19pm 7.5 1.3 6.3 92 0.6 NW 28 46 15 25 1009.2 1009.5 0.2
26/01:00pm 7.9 2.4 5.7 86 1.0 NW 24 46 13 25 1009.6 1009.9 0.0
26/12:30pm 8.3 2.4 5.6 83 1.2 NW 26 43 14 23 1010.5 1010.7 0.0
26/12:00pm 8.4 1.8 6.2 86 1.0 NW 30 54 16 29 1011.2 1011.4 0.0
26/11:38am 8.3 2.0 5.9 85 1.1 NW 28 48 15 26 1011.2 1011.4 0.0
26/11:30am 8.4 2.2 6.0 85 1.1 NW 28 44 15 24 1011.3 1011.5 0.0
26/11:11am 8.4 1.8 5.9 84 1.2 NW 30 48 16 26 1011.6 1011.9 0.0
26/11:00am 8.4 2.4 5.3 81 1.4 NW 26 43 14 23 1011.8 1012.1 0.0
26/10:40am 8.2 1.9 5.5 83 1.2 NW 28 46 15 25 1012.1 1012.4 0.0
26/10:30am 8.2 3.5 6.2 87 0.9 NW 20 39 11 21 1012.3 1012.6 0.0
26/10:10am 8.0 1.7 5.6 85 1.1 NW 28 54 15 29 1012.3 1012.6 0.0
26/10:00am 8.2 2.3 5.8 85 1.1 NW 26 39 14 21 1012.4 1012.7 0.0
26/09:30am 8.1 3.0 6.1 87 0.9 WNW 22 37 12 20 1012.4 1012.7 0.0
26/09:00am 7.5 2.4 5.8 89 0.8 WNW 22 37 12 20 1012.8 1013.1 16.6
26/08:30am 6.9 2.0 5.1 88 0.8 NW 20 30 11 16 1012.7 1013.0 16.6
26/08:00am 6.6 1.6 4.6 87 0.9 WNW 20 33 11 18 1012.7 1013.0 16.6
26/07:30am 6.2 1.0 5.3 94 0.4 WNW 22 35 12 19 1012.8 1013.1 16.6
26/07:00am 5.8 1.6 5.5 98 0.1 WNW 17 26 9 14 1013.0 1013.3 16.6
26/06:30am 5.5 1.9 5.2 98 0.1 W 13 17 7 9 1013.1 1013.4 16.6
26/06:00am 5.7 1.4 5.3 97 0.2 W 17 28 9 15 1012.9 1013.2 16.6
26/05:30am 5.7 1.4 5.3 97 0.2 WNW 17 26 9 14 1012.9 1013.2 16.6
26/05:00am 5.4 0.5 5.0 97 0.2 W 20 32 11 17 1012.9 1013.2 16.6
26/04:30am 5.8 1.0 5.4 97 0.2 W 20 32 11 17 1013.0 1013.3 16.0
26/04:00am 5.7 1.3 5.0 95 0.3 WNW 17 24 9 13 1012.9 1013.2 14.4
26/03:30am 5.6 0.7 5.0 96 0.3 W 20 37 11 20 1013.5 1013.7 14.4
26/03:00am 5.9 1.0 5.3 96 0.3 W 20 35 11 19 1013.5 1013.7 14.0
26/02:30am 6.0 1.6 4.8 92 0.5 WSW 17 24 9 13 1013.7 1013.9 13.0
26/02:00am 5.8 1.0 4.6 92 0.5 W 19 28 10 15 1013.9 1014.2 13.0
26/01:30am 6.1 0.1 5.1 93 0.4 W 26 37 14 20 1014.2 1014.5 13.0
26/01:00am 6.0 1.6 4.5 90 0.7 WSW 17 24 9 13 1014.1 1014.4 10.8
26/12:30am 7.2 1.2 3.6 78 1.6 W 24 33 13 18 1014.0 1014.3 10.6
26/12:00am 6.5 1.6 4.0 84 1.1 W 19 32 10 17 1014.1 1014.4 10.6
 
Date/Time
CST
Temp
°C
App
Temp
°C
Dew
Point
°C
Rel
Hum
%
Delta-T
°C
Wind Press
QNH
hPa
Press
MSL
hPa
Rain since
9am
mm
Dir  Spd
km/h
Gust
km/h
Spd
kts
Gust
kts
25/11:30pm 5.7 1.1 3.5 86 0.9 W 17 22 9 12 1014.2 1014.5 10.6
25/11:00pm 6.4 1.2 2.7 77 1.6 WSW 19 30 10 16 1014.2 1014.5 10.6
25/10:30pm 6.3 1.1 2.4 76 1.6 WSW 19 28 10 15 1014.1 1014.4 10.6
25/10:00pm 7.1 0.1 2.2 71 2.1 WSW 28 41 15 22 1014.0 1014.3 10.6
25/09:30pm 6.9 0.8 2.8 75 1.7 WSW 24 39 13 21 1013.9 1014.2 10.6
25/09:00pm 7.1 1.0 3.0 75 1.8 WSW 24 39 13 21 1013.9 1014.2 10.6
25/08:48pm 7.2 0.4 2.9 74 1.8 WSW 28 46 15 25 1013.8 1014.0 10.6
25/08:30pm 7.1 0.3 3.2 76 1.7 WSW 28 44 15 24 1013.5 1013.7 10.6
25/08:00pm 7.4 1.0 3.3 75 1.8 WSW 26 43 14 23 1013.1 1013.4 10.6
25/07:45pm 7.6 0.8 2.9 72 2.0 WSW 28 48 15 26 1012.8 1013.1 10.6
25/07:30pm 7.7 0.9 3.2 73 2.0 WSW 28 43 15 23 1012.7 1013.0 10.6
25/07:16pm 7.8 1.1 3.7 75 1.8 WSW 28 46 15 25 1012.7 1013.0 10.6
25/07:00pm 7.9 1.6 3.8 75 1.8 WSW 26 39 14 21 1012.5 1012.8 10.6
25/06:30pm 8.3 1.0 4.5 77 1.7 W 32 56 17 30 1012.0 1012.3 10.6
25/06:00pm 8.0 1.1 6.3 89 0.8 WSW 32 56 17 30 1011.4 1011.6 10.6
25/05:57pm 8.1 2.1 7.0 93 0.5 WSW 28 46 15 25 1011.4 1011.6 10.6
25/05:30pm 8.0 2.6 7.9 99 0.0 W 26 39 14 21 1011.1 1011.3 10.6
25/05:15pm 7.9 2.1 7.8 99 0.0 WSW 28 46 15 25 1011.0 1011.2 10.6
25/05:00pm 7.9 2.5 7.9 100 0.0 W 26 41 14 22 1010.8 1011.0 10.6
25/04:47pm 8.0 2.2 8.0 100 0.0 WSW 28 48 15 26 1010.7 1010.9 10.6
25/04:30pm 8.6 3.0 8.6 100 0.0 WSW 28 44 15 24 1010.6 1010.8 10.6
25/04:00pm 8.9 2.6 8.9 100 0.0 W 32 54 17 29 1010.0 1010.3 10.4
25/03:30pm 8.7 1.8 8.7 100 0.0 W 35 65 19 35 1009.4 1009.7 9.4
25/03:27pm 8.9 2.0 8.9 100 0.0 W 35 65 19 35 1009.4 1009.7 9.2
25/03:26pm 8.9 2.0 8.9 100 0.0 W 35 65 19 35 1009.3 1009.6 9.2
25/03:00pm 9.2 2.4 9.2 100 0.0 WNW 35 74 19 40 1008.9 1009.1 8.0
25/02:30pm 9.4 3.2 9.3 99 0.1 NW 32 52 17 28 1008.8 1009.0 3.8
25/02:00pm 9.1 2.8 9.0 99 0.1 NW 32 59 17 32 1008.9 1009.1 2.2
25/01:30pm 9.1 2.6 8.8 98 0.1 NW 33 52 18 28 1009.3 1009.6 1.2
25/01:00pm 8.9 2.9 8.5 97 0.2 NW 30 52 16 28 1009.9 1010.2 0.6
25/12:32pm 8.7 3.0 8.4 98 0.1 NW 28 46 15 25 1010.7 1010.9 0.4
25/12:30pm 8.7 2.6 8.4 98 0.1 NW 30 46 16 25 1010.7 1010.9 0.4
25/12:00pm 8.6 1.9 8.3 98 0.1 NW 33 56 18 30 1011.1 1011.3 0.4
25/11:30am 8.6 2.8 8.0 96 0.3 NW 28 48 15 26 1011.6 1011.9 0.0
25/11:00am 8.8 1.9 7.3 90 0.7 NW 33 56 18 30 1011.8 1012.1 0.0
25/10:30am 8.7 2.4 7.5 92 0.6 NW 30 54 16 29 1012.0 1012.3 0.0
25/10:15am 9.1 3.1 7.2 88 0.9 NW 28 46 15 25 1011.9 1012.2 0.0
25/10:00am 9.1 2.8 7.5 90 0.8 NW 30 44 16 24 1012.0 1012.3 0.0
25/09:34am 8.9 2.6 7.4 90 0.7 NW 30 48 16 26 1012.3 1012.6 0.0
25/09:30am 8.9 2.2 7.4 90 0.7 NW 32 48 17 26 1012.3 1012.6 0.0
25/09:00am 8.5 1.7 7.6 94 0.4 NW 33 52 18 28 1012.2 1012.5 23.2
25/08:30am 8.5 2.2 7.4 93 0.5 WNW 30 48 16 26 1012.2 1012.5 23.2
25/08:22am 8.4 2.5 7.5 94 0.4 WNW 28 48 15 26 1012.2 1012.5 23.2
25/08:00am 8.3 2.8 7.4 94 0.4 WNW 26 43 14 23 1012.2 1012.5 23.2
25/07:30am 8.0 2.8 7.1 94 0.4 WNW 24 41 13 22 1012.1 1012.4 23.2
25/07:00am 7.8 2.6 7.1 95 0.3 WNW 24 37 13 20 1012.2 1012.5 23.2
25/06:38am 7.8 1.8 7.1 95 0.3 WNW 28 46 15 25 1012.1 1012.4 23.2
25/06:30am 7.9 2.7 7.1 95 0.4 WNW 24 37 13 20 1012.1 1012.4 23.0
25/06:00am 7.5 3.0 6.9 96 0.3 WNW 20 35 11 19 1012.2 1012.5 23.0
25/05:30am 7.3 2.8 6.9 97 0.2 WNW 20 30 11 16 1012.0 1012.3 23.0
25/05:00am 7.1 2.5 6.7 97 0.2 WNW 20 30 11 16 1011.9 1012.2 23.0
25/04:30am 7.3 1.9 6.4 94 0.4 WNW 24 35 13 19 1012.1 1012.4 23.0
25/04:00am 7.7 2.1 5.5 86 1.0 W 24 39 13 21 1011.9 1012.2 23.0
25/03:30am 7.4 2.1 5.0 85 1.1 WSW 22 35 12 19 1012.2 1012.5 23.0
25/03:00am 7.4 2.4 4.5 82 1.3 WSW 20 32 11 17 1012.1 1012.4 23.0
25/02:30am 7.4 1.6 4.4 81 1.3 WSW 24 44 13 24 1012.4 1012.7 23.0
25/02:00am 7.3 1.6 5.1 86 1.0 WSW 24 35 13 19 1012.2 1012.5 23.0
25/01:30am 7.5 2.3 5.5 87 0.9 WSW 22 35 12 19 1012.2 1012.5 23.0
25/01:00am 7.7 2.2 5.7 87 0.9 WSW 24 46 13 25 1011.8 1012.1 23.0
25/12:55am 7.7 1.4 5.5 86 1.0 WSW 28 46 15 25 1011.7 1012.0 23.0
25/12:30am 7.7 1.8 5.7 87 0.9 WSW 26 43 14 23 1011.5 1011.8 23.0
25/12:00am 7.6 1.6 5.2 85 1.1 WSW 26 43 14 23 1011.4 1011.6 23.0
 
Date/Time
CST
Temp
°C
App
Temp
°C
Dew
Point
°C
Rel
Hum
%
Delta-T
°C
Wind Press
QNH
hPa
Press
MSL
hPa
Rain since
9am
mm
Dir  Spd
km/h
Gust
km/h
Spd
kts
Gust
kts
24/11:33pm 7.7 1.3 5.3 85 1.1 WSW 28 46 15 25 1011.0 1011.2 23.0
24/11:30pm 7.7 1.7 5.5 86 1.0 WSW 26 41 14 22 1011.0 1011.2 23.0
24/11:00pm 7.7 1.0 5.7 87 0.9 WSW 30 43 16 23 1010.8 1011.0 23.0
24/10:43pm 7.6 1.3 5.9 89 0.8 WSW 28 50 15 27 1010.5 1010.7 23.0
24/10:30pm 7.5 1.2 5.8 89 0.8 WSW 28 41 15 22 1010.3 1010.6 23.0
24/10:00pm 7.5 1.3 6.1 91 0.6 WSW 28 48 15 26 1009.8 1010.1 23.0
24/09:30pm 7.5 0.7 6.9 96 0.3 WSW 32 57 17 31 1009.4 1009.7 23.0
24/09:00pm 7.6 1.2 7.0 96 0.3 WSW 30 52 16 28 1008.9 1009.1 22.4
24/08:30pm 8.0 1.4 7.6 97 0.2 W 32 59 17 32 1008.6 1008.8 21.6
24/08:00pm 7.3 0.0 7.0 98 0.1 W 35 54 19 29 1008.4 1008.6 21.6
24/07:30pm 7.5 0.2 7.4 99 0.0 WSW 35 59 19 32 1007.7 1007.9 21.0
24/07:00pm 8.0 0.4 7.7 98 0.1 WSW 37 65 20 35 1007.0 1007.3 18.6
24/06:42pm 7.6 0.7 7.3 98 0.1 W 33 76 18 41 1006.5 1006.7 17.8
24/06:30pm 7.9 1.2 7.5 97 0.2 W 32 50 17 27 1006.2 1006.4 13.6
24/06:00pm 7.8 -0.3 6.9 94 0.4 W 39 70 21 38 1005.6 1005.8 12.0
24/05:30pm 8.0 -0.5 6.9 93 0.5 W 41 69 22 37 1005.1 1005.3 11.0
24/05:00pm 8.4 -0.6 6.4 87 0.9 WNW 43 69 23 37 1004.8 1005.0 10.0
24/04:30pm 8.1 1.0 6.4 89 0.8 WNW 33 56 18 30 1004.9 1005.1 9.6
24/04:00pm 7.7 -0.3 5.7 87 0.9 WNW 37 65 20 35 1004.8 1005.0 9.6
24/03:30pm 7.2 -1.5 6.1 93 0.5 WNW 41 70 22 38 1004.9 1005.1 9.4
24/03:00pm 8.1 -0.1 5.0 81 1.4 WNW 37 61 20 33 1004.8 1005.0 8.8
24/02:30pm 8.5 1.3 4.9 78 1.6 WNW 32 56 17 30 1004.8 1005.0 8.8
24/02:00pm 8.4 0.9 4.4 76 1.8 W 33 57 18 31 1005.0 1005.2 8.8
24/01:30pm 7.5 0.6 4.6 82 1.3 WNW 30 59 16 32 1004.7 1004.9 8.6

Other Formats:

Comma delimited format used in spreadsheet applications
http://www.bom.gov.au/fwo/IDS60801/IDS60801.94683.axf

JavaScript Object Notation format (JSON) in row-major order
http://www.bom.gov.au/fwo/IDS60801/IDS60801.94683.json